Terminal Aerodrome Forecast
Issued by NWS

Home | Current Version | Previous Version | Text Only | Print | Product List | Glossary On
Versions: 1 2 3 4 5 6 7 8 9 10 11 12 13 14 15 16
000
FTAK31 PANC 291745
TAFAVD
TAF
PAVD 291745Z 2918/3018 VRB03KT P6SM -SHRA SCT008 OVC035
      TEMPO 2918/2921 3SM -DZ BR OVC008
     FM292100 25007KT P6SM SCT025 BKN050
      TEMPO 2921/2924 BKN025
     FM300300 27005KT P6SM BKN025 OVC040
      AMD LTD TO CLD VIS AND WIND=

USA.gov is the U.S. government's official web portal to all federal, state and local government web resources and services.